createdAt,value
2022-10-19T00:01:20.031Z,96.16
2022-10-19T00:03:52.771Z,96.51
2022-10-19T00:06:25.651Z,96.70
2022-10-19T00:08:54.545Z,96.88
2022-10-19T00:11:23.775Z,97.08
2022-10-19T00:13:51.846Z,97.55
2022-10-19T00:16:20.427Z,97.49
2022-10-19T00:18:49.794Z,97.38
2022-10-19T00:21:20.549Z,97.54
2022-10-19T00:23:49.963Z,97.51
2022-10-19T00:26:18.154Z,97.61
2022-10-19T00:28:46.948Z,97.71
2022-10-19T00:31:18.417Z,97.82
2022-10-19T00:33:47.795Z,97.67
2022-10-19T00:36:24.186Z,97.62
2022-10-19T00:38:53.895Z,97.76
2022-10-19T00:41:24.640Z,97.93
2022-10-19T00:43:56.531Z,98.11
2022-10-19T00:46:25.601Z,98.03
2022-10-19T00:49:00.287Z,97.98
2022-10-19T00:51:33.128Z,98.00
2022-10-19T00:54:05.049Z,98.04
2022-10-19T00:56:34.384Z,98.25
2022-10-19T00:59:05.328Z,98.46
2022-10-19T01:01:35.214Z,98.21
2022-10-19T01:04:05.180Z,98.05
2022-10-19T01:06:35.062Z,98.30
2022-10-19T01:09:03.255Z,98.32
2022-10-19T01:11:44.940Z,98.50
2022-10-19T01:14:32.463Z,98.66
2022-10-19T01:17:13.922Z,98.80
2022-10-19T01:20:33.360Z,98.67
2022-10-19T01:23:40.773Z,98.76
2022-10-19T01:26:32.956Z,98.84
2022-10-19T01:29:18.447Z,98.48
2022-10-19T01:31:59.462Z,98.71
2022-10-19T01:34:36.746Z,98.73
2022-10-19T01:37:18.178Z,98.02
2022-10-19T01:39:54.677Z,97.51
2022-10-19T01:42:32.768Z,97.37
2022-10-19T01:45:10.263Z,97.60
2022-10-19T01:47:48.120Z,97.28
2022-10-19T01:50:25.128Z,97.39
2022-10-19T01:52:56.511Z,97.43
2022-10-19T01:55:28.165Z,97.68
2022-10-19T01:58:04.137Z,97.87
2022-10-19T02:00:40.396Z,97.60
2022-10-19T02:03:11.925Z,97.71
2022-10-19T02:05:42.580Z,97.43
2022-10-19T02:08:18.331Z,97.07
2022-10-19T02:10:48.301Z,96.55
2022-10-19T02:13:17.806Z,96.70
2022-10-19T02:15:51.815Z,96.69
2022-10-19T02:18:28.099Z,96.78
2022-10-19T02:20:56.953Z,96.38
2022-10-19T02:23:27.933Z,96.05
2022-10-19T02:25:57.651Z,95.58
2022-10-19T02:28:27.261Z,95.20
2022-10-19T02:30:55.609Z,95.00
2022-10-19T02:33:25.241Z,94.80
2022-10-19T02:35:53.314Z,94.47
2022-10-19T02:38:25.132Z,94.21
2022-10-19T02:41:04.064Z,94.06
2022-10-19T02:43:37.174Z,93.73
2022-10-19T02:46:11.706Z,93.40
2022-10-19T02:48:43.351Z,93.47
2022-10-19T02:51:31.202Z,93.41
2022-10-19T02:54:01.275Z,93.65
2022-10-19T02:56:33.017Z,93.34
2022-10-19T02:59:00.989Z,93.49
2022-10-19T03:01:29.254Z,94.10
2022-10-19T03:03:58.646Z,94.72
2022-10-19T03:06:26.654Z,94.93
2022-10-19T03:08:54.728Z,95.28
2022-10-19T03:11:22.714Z,95.46
2022-10-19T03:13:50.727Z,95.56
2022-10-19T03:16:18.934Z,95.76
2022-10-19T03:18:48.879Z,95.38
2022-10-19T03:21:19.373Z,95.19
2022-10-19T03:23:48.028Z,95.21
2022-10-19T03:26:18.202Z,94.90
2022-10-19T03:28:46.464Z,94.92
2022-10-19T03:31:14.458Z,95.12
2022-10-19T03:33:42.457Z,95.19
2022-10-19T03:36:25.717Z,95.42
2022-10-19T03:38:54.910Z,95.56
2022-10-19T03:41:24.966Z,95.47
2022-10-19T03:43:53.604Z,95.56
2022-10-19T03:46:22.506Z,95.94
2022-10-19T03:48:51.189Z,95.96
2022-10-19T03:51:23.640Z,95.99
2022-10-19T03:53:54.960Z,95.77
2022-10-19T03:56:26.712Z,95.81
2022-10-19T03:58:56.892Z,95.32
2022-10-19T04:01:28.161Z,94.88
2022-10-19T04:03:57.702Z,94.74
2022-10-19T04:06:30.089Z,95.13
2022-10-19T04:08:59.003Z,95.25
2022-10-19T04:11:30.703Z,95.44
2022-10-19T04:14:00.368Z,95.32
2022-10-19T04:16:31.558Z,95.32
2022-10-19T04:19:00.821Z,95.43
2022-10-19T04:21:32.753Z,95.25
2022-10-19T04:24:05.383Z,94.85
2022-10-19T04:26:33.932Z,95.13
2022-10-19T04:29:02.924Z,95.18
2022-10-19T04:31:31.054Z,95.29
2022-10-19T04:33:59.242Z,95.58
2022-10-19T04:36:28.827Z,95.51
2022-10-19T04:38:56.823Z,95.67
2022-10-19T04:41:25.157Z,94.85
2022-10-19T04:43:58.214Z,94.07
2022-10-19T04:46:28.286Z,93.96
2022-10-19T04:48:57.906Z,93.81
2022-10-19T04:51:26.931Z,93.29
2022-10-19T04:53:59.592Z,93.01
2022-10-19T04:56:29.199Z,92.85
2022-10-19T04:58:59.136Z,92.99
2022-10-19T05:01:29.757Z,92.79
2022-10-19T05:04:00.551Z,93.16
2022-10-19T05:06:29.785Z,93.54
2022-10-19T05:08:59.764Z,93.32
2022-10-19T05:11:28.070Z,93.51
2022-10-19T05:13:57.981Z,93.54
2022-10-19T05:16:26.658Z,93.59
2022-10-19T05:18:58.749Z,94.05
2022-10-19T05:21:29.566Z,94.51
2022-10-19T05:23:59.280Z,94.72
2022-10-19T05:26:30.130Z,94.71
2022-10-19T05:29:01.858Z,94.58
2022-10-19T05:31:32.808Z,94.96
2022-10-19T05:34:01.484Z,95.15
2022-10-19T05:36:34.555Z,95.00
2022-10-19T05:39:07.263Z,94.49
2022-10-19T05:41:35.704Z,93.56
2022-10-19T05:44:05.707Z,93.00
2022-10-19T05:46:35.055Z,91.84
2022-10-19T05:49:03.114Z,92.24
2022-10-19T05:51:31.151Z,91.92
2022-10-19T05:53:59.287Z,92.23
2022-10-19T05:56:31.195Z,92.73
2022-10-19T05:59:01.705Z,93.08
2022-10-19T06:01:31.176Z,92.22
2022-10-19T06:04:01.270Z,91.85
2022-10-19T06:06:31.364Z,90.21
2022-10-19T06:08:59.944Z,89.32
2022-10-19T06:11:33.901Z,89.40
2022-10-19T06:14:05.574Z,90.24
2022-10-19T06:16:34.823Z,91.14
2022-10-19T06:19:02.908Z,90.78
2022-10-19T06:21:33.143Z,91.05
2022-10-19T06:24:04.076Z,91.19
2022-10-19T06:26:35.675Z,90.98
2022-10-19T06:29:05.239Z,90.03
2022-10-19T06:31:36.284Z,89.50
2022-10-19T06:34:05.236Z,89.48
2022-10-19T06:36:34.227Z,89.11
2022-10-19T06:39:02.948Z,88.26
2022-10-19T06:41:34.160Z,88.06
2022-10-19T06:44:02.909Z,87.72
2022-10-19T06:46:32.207Z,88.20
2022-10-19T06:49:02.379Z,87.83
2022-10-19T06:51:33.938Z,88.04
2022-10-19T06:54:02.191Z,88.08
2022-10-19T06:56:30.474Z,88.58
2022-10-19T06:59:00.366Z,86.75
2022-10-19T07:01:28.489Z,85.88
2022-10-19T07:03:56.546Z,85.36
2022-10-19T07:06:25.103Z,86.83
2022-10-19T07:08:53.948Z,88.11
2022-10-19T07:11:23.346Z,88.43
2022-10-19T07:13:53.297Z,89.61
2022-10-19T07:16:23.234Z,88.96
2022-10-19T07:18:54.079Z,88.72
2022-10-19T07:21:24.393Z,89.16
2022-10-19T07:23:53.166Z,89.36
2022-10-19T07:26:26.764Z,90.02
2022-10-19T07:28:57.657Z,91.37
2022-10-19T07:31:28.963Z,89.95
2022-10-19T07:34:00.300Z,89.26
2022-10-19T07:36:30.466Z,87.64
2022-10-19T07:38:58.861Z,87.88
2022-10-19T07:41:27.442Z,86.07
2022-10-19T07:43:57.740Z,86.21
2022-10-19T07:46:33.334Z,84.75
2022-10-19T07:49:01.850Z,85.63
2022-10-19T07:51:30.016Z,86.54
2022-10-19T07:53:59.533Z,85.10
2022-10-19T07:56:29.304Z,84.84
2022-10-19T07:58:59.766Z,86.10
2022-10-19T08:01:32.648Z,87.21
2022-10-19T08:06:50.522Z,83.25
2022-10-19T08:09:47.194Z,81.95
2022-10-19T08:12:09.043Z,83.80
2022-10-19T08:14:39.348Z,81.98
2022-10-19T08:17:11.522Z,82.26
2022-10-19T08:19:43.097Z,83.04
2022-10-19T08:22:11.788Z,82.72
2022-10-19T08:24:39.937Z,82.39
2022-10-19T08:27:07.980Z,83.15
2022-10-19T08:29:35.982Z,84.42
2022-10-19T08:32:03.969Z,82.44
2022-10-19T08:34:33.921Z,82.66
2022-10-19T08:37:10.164Z,81.59
2022-10-19T08:39:48.052Z,79.58
2022-10-19T08:42:22.307Z,77.84
2022-10-19T08:45:23.234Z,76.49
2022-10-19T08:48:13.594Z,77.66
2022-10-19T08:50:48.051Z,74.69
2022-10-19T08:53:23.358Z,74.29
2022-10-19T08:56:12.385Z,74.06
2022-10-19T08:59:03.761Z,69.43
2022-10-19T09:01:41.891Z,71.68
2022-10-19T09:04:20.528Z,71.76
2022-10-19T09:07:10.912Z,69.96
2022-10-19T09:09:47.656Z,71.74
2022-10-19T09:12:22.065Z,73.36
2022-10-19T09:15:01.623Z,70.78
2022-10-19T09:17:33.208Z,69.45
2022-10-19T09:20:18.109Z,68.74
2022-10-19T09:22:57.822Z,68.21
2022-10-19T09:25:29.114Z,65.51
2022-10-19T09:28:15.549Z,64.38
2022-10-19T09:30:47.511Z,64.41
2022-10-19T09:33:24.677Z,65.36
2022-10-19T09:35:55.053Z,63.60
2022-10-19T09:38:29.224Z,62.75
2022-10-19T09:40:59.227Z,61.53
2022-10-19T09:43:28.280Z,60.34
2022-10-19T09:46:13.864Z,59.20
2022-10-19T09:48:51.450Z,60.59
2022-10-19T09:51:21.909Z,60.36
2022-10-19T09:53:54.833Z,59.50
2022-10-19T09:56:25.926Z,59.46
2022-10-19T09:58:57.969Z,60.77
2022-10-19T10:01:41.602Z,60.10
2022-10-19T10:04:15.859Z,58.46
2022-10-19T10:06:49.055Z,59.90
2022-10-19T10:09:20.607Z,60.42
2022-10-19T10:11:51.844Z,59.51
2022-10-19T10:14:25.000Z,60.29
2022-10-19T10:16:57.201Z,60.04
2022-10-19T10:19:30.270Z,60.92
2022-10-19T10:22:00.758Z,61.38
2022-10-19T10:24:32.698Z,61.77
2022-10-19T10:27:04.198Z,59.93
2022-10-19T10:29:35.445Z,59.44
2022-10-19T10:32:09.811Z,60.40
2022-10-19T10:34:59.937Z,60.28
2022-10-19T10:37:38.520Z,59.40
2022-10-19T10:40:23.806Z,58.65
2022-10-19T10:42:55.068Z,57.12
2022-10-19T10:45:30.215Z,56.93
2022-10-19T10:48:00.745Z,56.66
2022-10-19T10:50:37.251Z,57.40
2022-10-19T10:53:08.833Z,56.78
2022-10-19T10:55:38.211Z,56.25
2022-10-19T10:58:20.750Z,56.98
2022-10-19T11:00:53.234Z,55.94
2022-10-19T11:03:28.806Z,54.83
2022-10-19T11:05:59.843Z,55.53
2022-10-19T11:08:35.077Z,55.99
2022-10-19T11:11:16.225Z,56.63
2022-10-19T11:13:52.666Z,55.36
2022-10-19T11:16:27.907Z,53.74
2022-10-19T11:19:06.853Z,54.92
2022-10-19T11:21:43.511Z,54.97
2022-10-19T11:24:22.420Z,55.80
2022-10-19T11:27:11.764Z,54.55
2022-10-19T11:30:03.447Z,54.83
2022-10-19T11:32:49.844Z,53.51
2022-10-19T11:35:36.139Z,52.82
2022-10-19T11:38:33.227Z,51.26
2022-10-19T11:41:18.845Z,49.60
2022-10-19T11:44:22.070Z,48.55
2022-10-19T11:47:12.346Z,49.28
2022-10-19T11:50:00.704Z,50.30
2022-10-19T11:52:46.188Z,50.33
2022-10-19T11:55:29.270Z,49.74
2022-10-19T11:58:16.896Z,51.05
2022-10-19T12:00:57.854Z,50.54
2022-10-19T12:04:01.388Z,51.73
2022-10-19T12:06:40.833Z,52.78
2022-10-19T12:09:34.927Z,54.40
2022-10-19T12:12:21.105Z,55.01
2022-10-19T12:14:55.137Z,55.48
2022-10-19T12:17:30.513Z,56.20
2022-10-19T12:20:06.200Z,55.53
2022-10-19T12:22:38.370Z,54.94
2022-10-19T12:25:07.726Z,55.34
2022-10-19T12:27:39.190Z,54.97
2022-10-19T12:30:15.328Z,54.79
2022-10-19T12:33:01.829Z,54.65
2022-10-19T12:36:02.263Z,55.43
2022-10-19T12:38:49.466Z,54.81
2022-10-19T12:41:30.077Z,54.82
2022-10-19T12:44:17.602Z,54.64
2022-10-19T12:46:53.069Z,55.04
2022-10-19T12:49:55.513Z,55.34
2022-10-19T12:52:42.968Z,55.18
2022-10-19T12:55:25.027Z,55.41
2022-10-19T12:58:03.397Z,55.53
2022-10-19T13:00:35.565Z,56.06
2022-10-19T13:03:11.752Z,56.83
2022-10-19T13:05:41.331Z,55.94
2022-10-19T13:08:13.696Z,55.11
2022-10-19T13:10:42.567Z,53.62
2022-10-19T13:13:52.841Z,54.45
2022-10-19T13:17:02.702Z,54.40
2022-10-19T13:19:31.153Z,53.06
2022-10-19T13:22:28.701Z,54.88
2022-10-19T13:25:27.934Z,53.59
2022-10-19T13:28:01.847Z,53.89
2022-10-19T13:31:06.161Z,54.16
2022-10-19T13:33:48.474Z,52.71
2022-10-19T13:36:17.420Z,53.70
2022-10-19T13:39:02.653Z,53.53
2022-10-19T13:41:50.594Z,53.51
2022-10-19T13:44:36.594Z,54.21
2022-10-19T13:47:28.327Z,52.89
2022-10-19T13:50:20.848Z,53.63
2022-10-19T13:53:39.098Z,54.08
2022-10-19T13:56:47.144Z,53.10
2022-10-19T13:59:57.216Z,52.53
2022-10-19T14:02:59.187Z,53.72
2022-10-19T14:06:13.987Z,53.43
2022-10-19T14:09:37.043Z,54.66
2022-10-19T14:12:16.391Z,54.84
2022-10-19T14:14:45.652Z,54.34
2022-10-19T14:17:20.231Z,54.84
2022-10-19T14:19:51.939Z,54.15
2022-10-19T14:22:25.464Z,53.64
2022-10-19T14:25:01.216Z,54.14
2022-10-19T14:27:32.117Z,53.86
2022-10-19T14:30:00.421Z,55.28
2022-10-19T14:32:30.588Z,54.01
2022-10-19T14:35:18.890Z,54.50
2022-10-19T14:37:47.245Z,54.43
2022-10-19T14:40:29.370Z,54.30
2022-10-19T14:43:00.621Z,55.78
2022-10-19T14:45:30.883Z,54.66
2022-10-19T14:48:02.315Z,54.61
2022-10-19T14:50:42.926Z,55.24
2022-10-19T14:53:31.434Z,55.65
2022-10-19T14:56:04.952Z,55.42
2022-10-19T14:58:42.937Z,55.41
2022-10-19T15:01:13.120Z,56.04
2022-10-19T15:03:45.469Z,55.65
2022-10-19T15:06:22.461Z,55.71
2022-10-19T15:08:55.770Z,55.66
2022-10-19T15:11:32.062Z,53.06
2022-10-19T15:14:07.260Z,53.56
2022-10-19T15:16:45.590Z,54.19
2022-10-19T15:19:24.244Z,55.57
2022-10-19T15:22:12.911Z,56.32
2022-10-19T15:24:55.529Z,55.25
2022-10-19T15:27:32.088Z,54.53
2022-10-19T15:30:05.654Z,56.16
2022-10-19T15:32:38.761Z,57.05
2022-10-19T15:35:13.445Z,57.52
2022-10-19T15:37:45.409Z,57.48
2022-10-19T15:40:21.194Z,58.24
2022-10-19T15:42:49.374Z,58.52
2022-10-19T15:45:35.705Z,57.55
2022-10-19T15:48:27.818Z,57.85
2022-10-19T15:50:58.271Z,57.89
2022-10-19T15:53:27.285Z,56.79
2022-10-19T15:55:55.329Z,58.16
2022-10-19T15:58:23.393Z,59.87
2022-10-19T16:00:52.672Z,60.73
2022-10-19T16:03:20.589Z,61.78
2022-10-19T16:05:48.674Z,61.55
2022-10-19T16:08:16.634Z,61.24
2022-10-19T16:10:44.571Z,59.29
2022-10-19T16:13:12.483Z,59.75
2022-10-19T16:15:40.413Z,61.14
2022-10-19T16:18:12.094Z,60.93
2022-10-19T16:20:40.328Z,60.15
2022-10-19T16:23:08.658Z,59.83
2022-10-19T16:25:37.511Z,59.86
2022-10-19T16:28:05.718Z,59.81
2022-10-19T16:30:33.650Z,58.95
2022-10-19T16:33:01.623Z,60.14
2022-10-19T16:35:30.847Z,60.80
2022-10-19T16:37:58.959Z,59.40
2022-10-19T16:40:26.895Z,59.07
2022-10-19T16:42:56.647Z,58.58
2022-10-19T16:45:24.503Z,58.83
2022-10-19T16:47:52.462Z,60.54
2022-10-19T16:50:20.894Z,60.86
2022-10-19T16:53:05.322Z,61.64
2022-10-19T16:55:33.317Z,61.19
2022-10-19T16:58:01.230Z,62.85
2022-10-19T17:00:29.249Z,61.85
2022-10-19T17:02:57.155Z,62.13
2022-10-19T17:05:25.301Z,63.59
2022-10-19T17:07:54.569Z,64.99
2022-10-19T17:10:22.479Z,65.97
2022-10-19T17:12:50.416Z,66.39
2022-10-19T17:15:41.554Z,67.83
2022-10-19T17:18:07.057Z,68.58
2022-10-19T17:20:34.970Z,69.10
2022-10-19T17:23:04.216Z,69.59
2022-10-19T17:25:32.217Z,69.73
2022-10-19T17:28:00.113Z,70.13
2022-10-19T17:30:28.162Z,70.50
2022-10-19T17:32:56.145Z,71.05
2022-10-19T17:35:24.059Z,71.15
2022-10-19T17:37:51.964Z,70.41
2022-10-19T17:40:21.239Z,69.54
2022-10-19T17:42:49.118Z,69.90
2022-10-19T17:45:17.141Z,71.06
2022-10-19T17:47:45.080Z,71.79
2022-10-19T17:50:13.029Z,72.49
2022-10-19T17:52:40.990Z,72.83
2022-10-19T17:55:12.526Z,72.62
2022-10-19T17:57:42.674Z,73.04
2022-10-19T18:00:11.921Z,73.20
2022-10-19T18:02:40.547Z,73.45
2022-10-19T18:05:09.766Z,72.80
2022-10-19T18:07:38.033Z,72.30
2022-10-19T18:10:06.998Z,71.62
2022-10-19T18:12:34.944Z,72.58
2022-10-19T18:15:04.806Z,73.29
2022-10-19T18:17:32.724Z,73.80
2022-10-19T18:20:00.661Z,73.92
2022-10-19T18:22:28.609Z,74.13
2022-10-19T18:24:56.572Z,73.90
2022-10-19T18:27:24.648Z,74.09
2022-10-19T18:29:52.588Z,74.86
2022-10-19T18:32:21.874Z,74.59
2022-10-19T18:34:50.076Z,75.26
2022-10-19T18:37:17.974Z,75.83
2022-10-19T18:39:45.914Z,76.63
2022-10-19T18:42:13.848Z,76.74
2022-10-19T18:44:41.815Z,76.51
2022-10-19T18:47:09.824Z,76.77
2022-10-19T18:49:39.116Z,76.68
2022-10-19T18:52:07.111Z,76.91
2022-10-19T18:54:35.044Z,76.22
2022-10-19T18:57:03.034Z,76.11
2022-10-19T18:59:31.174Z,76.36
2022-10-19T19:01:59.109Z,76.12
2022-10-19T19:04:27.115Z,76.75
2022-10-19T19:06:56.456Z,77.30
2022-10-19T19:09:24.474Z,77.11
2022-10-19T19:11:54.195Z,77.23
2022-10-19T19:14:22.176Z,76.72
2022-10-19T19:16:50.238Z,76.83
2022-10-19T19:19:20.807Z,77.19
2022-10-19T19:21:49.902Z,77.69
2022-10-19T19:24:22.804Z,77.43
2022-10-19T19:26:54.710Z,77.52
2022-10-19T19:29:23.457Z,77.92
2022-10-19T19:31:53.311Z,78.23
2022-10-19T19:34:21.621Z,78.62
2022-10-19T19:36:49.821Z,78.98
2022-10-19T19:39:21.764Z,78.86
2022-10-19T19:41:50.907Z,78.79
2022-10-19T19:44:19.981Z,79.07
2022-10-19T19:46:48.473Z,79.29
2022-10-19T19:49:16.490Z,79.36
2022-10-19T19:51:44.466Z,79.34
2022-10-19T19:54:12.535Z,79.48
2022-10-19T19:56:42.411Z,79.95
2022-10-19T19:59:13.132Z,80.44
2022-10-19T20:01:41.332Z,80.59
2022-10-19T20:04:11.332Z,80.81
2022-10-19T20:06:42.859Z,80.78
2022-10-19T20:09:11.303Z,81.11
2022-10-19T20:11:42.624Z,81.06
2022-10-19T20:14:11.416Z,81.30
2022-10-19T20:16:39.379Z,81.73
2022-10-19T20:19:10.002Z,81.73
2022-10-19T20:21:38.407Z,81.83
2022-10-19T20:24:06.928Z,81.84
2022-10-19T20:26:35.274Z,81.49
2022-10-19T20:29:05.936Z,80.85
2022-10-19T20:31:39.358Z,80.69
2022-10-19T20:34:13.642Z,80.88
2022-10-19T20:36:42.144Z,80.94
2022-10-19T20:39:11.134Z,81.08
2022-10-19T20:41:39.222Z,80.81
2022-10-19T20:44:08.551Z,80.68
2022-10-19T20:46:37.237Z,80.87
2022-10-19T20:49:07.251Z,80.59
2022-10-19T20:51:37.851Z,79.88
2022-10-19T20:54:09.439Z,79.49
2022-10-19T20:56:39.936Z,78.73
2022-10-19T20:59:13.869Z,78.72
2022-10-19T21:01:44.561Z,79.33
2022-10-19T21:04:15.591Z,79.70
2022-10-19T21:06:46.610Z,79.76
2022-10-19T21:09:18.065Z,79.90
2022-10-19T21:11:50.046Z,80.06
2022-10-19T21:14:25.328Z,80.06
2022-10-19T21:16:57.693Z,79.54
2022-10-19T21:19:28.700Z,79.09
2022-10-19T21:22:01.636Z,78.73
2022-10-19T21:24:33.207Z,77.62
2022-10-19T21:27:03.768Z,78.01
2022-10-19T21:29:33.188Z,78.15
2022-10-19T21:32:01.199Z,77.53
2022-10-19T21:34:31.767Z,77.33
2022-10-19T21:37:00.389Z,76.91
2022-10-19T21:39:28.453Z,76.67
2022-10-19T21:41:56.449Z,76.42
2022-10-19T21:44:24.483Z,76.88
2022-10-19T21:46:53.888Z,76.82
2022-10-19T21:49:21.907Z,77.19
2022-10-19T21:51:53.520Z,77.05
2022-10-19T21:54:24.749Z,77.10
2022-10-19T21:56:55.030Z,77.67
2022-10-19T21:59:23.197Z,78.07
2022-10-19T22:01:51.280Z,78.15
2022-10-19T22:04:20.659Z,78.23
2022-10-19T22:06:49.023Z,78.31
2022-10-19T22:09:21.169Z,77.74
2022-10-19T22:11:49.921Z,77.96
2022-10-19T22:14:18.654Z,78.19
2022-10-19T22:16:46.684Z,78.13
2022-10-19T22:19:14.776Z,78.52
2022-10-19T22:21:44.191Z,78.48
2022-10-19T22:24:15.702Z,78.27
2022-10-19T22:26:50.524Z,78.15
2022-10-19T22:29:18.777Z,78.62
2022-10-19T22:31:46.817Z,78.85
2022-10-19T22:34:17.591Z,79.29
2022-10-19T22:36:47.165Z,78.54
2022-10-19T22:39:16.353Z,78.73
2022-10-19T22:41:44.378Z,78.48
2022-10-19T22:44:12.499Z,78.79
2022-10-19T22:46:40.452Z,78.58
2022-10-19T22:51:41.984Z,78.82
2022-10-19T22:54:11.510Z,78.74
2022-10-19T22:56:40.047Z,78.95
2022-10-19T22:59:08.518Z,78.58
2022-10-19T23:01:37.395Z,78.43
2022-10-19T23:04:05.612Z,77.77
2022-10-19T23:06:33.819Z,78.00
2022-10-19T23:09:01.846Z,78.38
2022-10-19T23:11:31.208Z,77.99
2022-10-19T23:13:59.336Z,78.59
2022-10-19T23:18:56.337Z,78.28
2022-10-19T23:21:24.303Z,78.57
2022-10-19T23:23:52.288Z,79.03
2022-10-19T23:26:21.997Z,78.86
2022-10-19T23:28:52.099Z,78.62
2022-10-19T23:31:24.770Z,78.04
2022-10-19T23:33:53.890Z,77.92
2022-10-19T23:36:24.613Z,78.15
2022-10-19T23:38:55.136Z,77.79
2022-10-19T23:41:24.189Z,77.79
2022-10-19T23:43:53.595Z,77.11
2022-10-19T23:46:21.707Z,77.92
2022-10-19T23:48:49.792Z,77.78
2022-10-19T23:51:21.744Z,77.74
2022-10-19T23:53:52.220Z,77.80
2022-10-19T23:56:23.388Z,77.80
2022-10-19T23:58:53.691Z,78.24
